Time;durP1;ratioP1;P1;durP2;ratioP2;P2;SDS_P1;SDS_P2;PMS_P1;PMS_P2;Temp;Humidity;BMP_temperature;BMP_pressure;BME280_temperature;BME280_humidity;BME280_pressure;Samples;Min_cycle;Max_cycle;Signal;HPM_P1;HPM_P2
2023/04/25 00:01:37;;;;;;;2.90;1.20;;;;;;;;;;5127428;27;20047;-72
2023/04/25 00:04:15;;;;;;;3.65;1.52;;;;;;;;;;5128075;27;20074;-73
2023/04/25 00:06:48;;;;;;;3.03;1.10;;;;;;;;;;5128038;27;20051;-73
2023/04/25 00:09:19;;;;;;;4.97;1.60;;;;;;;;;;5128662;27;20043;-71
2023/04/25 00:11:49;;;;;;;4.25;1.20;;;;;;;;;;5126528;27;20512;-73
2023/04/25 00:14:23;;;;;;;1.75;1.10;;;;;;;;;;5125315;27;20058;-72
2023/04/25 00:16:59;;;;;;;2.15;1.20;;;;;;;;;;5125566;27;20047;-73
2023/04/25 00:19:30;;;;;;;4.00;1.27;;;;;;;;;;5127291;27;20481;-71
2023/04/25 00:22:05;;;;;;;2.35;1.23;;;;;;;;;;5126808;27;20050;-72
2023/04/25 00:24:37;;;;;;;3.20;1.40;;;;;;;;;;5106666;27;20047;-72
2023/04/25 00:27:08;;;;;;;3.47;1.60;;;;;;;;;;5125397;27;20042;-71
2023/04/25 00:29:41;;;;;;;2.50;1.65;;;;;;;;;;5124943;27;20509;-72
2023/04/25 00:32:12;;;;;;;3.03;1.30;;;;;;;;;;5123759;27;21002;-72
2023/04/25 00:34:44;;;;;;;3.78;1.80;;;;;;;;;;5127117;27;20963;-72
2023/04/25 00:37:16;;;;;;;3.88;1.33;;;;;;;;;;5127297;27;20082;-72
2023/04/25 00:39:49;;;;;;;2.92;1.17;;;;;;;;;;5127142;27;20686;-71
2023/04/25 00:42:27;;;;;;;3.38;1.40;;;;;;;;;;5125970;27;20401;-72
2023/04/25 00:45:00;;;;;;;2.30;1.30;;;;;;;;;;5123788;27;20125;-71
2023/04/25 00:47:33;;;;;;;3.17;1.20;;;;;;;;;;5124279;27;20043;-73
2023/04/25 00:50:06;;;;;;;1.75;1.65;;;;;;;;;;5126184;27;20047;-72
2023/04/25 00:52:44;;;;;;;3.72;1.75;;;;;;;;;;5126668;27;20063;-73
2023/04/25 00:55:16;;;;;;;4.88;1.90;;;;;;;;;;5123349;27;20058;-72
2023/04/25 00:57:49;;;;;;;6.55;1.45;;;;;;;;;;5126382;27;20047;-72
2023/04/25 01:00:22;;;;;;;3.08;1.70;;;;;;;;;;5125898;27;20055;-72
2023/04/25 01:02:53;;;;;;;12.10;2.20;;;;;;;;;;5127041;27;20489;-71
2023/04/25 01:05:26;;;;;;;3.17;1.60;;;;;;;;;;5127077;27;20541;-72
2023/04/25 01:07:59;;;;;;;3.10;1.70;;;;;;;;;;5127497;27;20055;-72
2023/04/25 01:10:31;;;;;;;3.50;1.50;;;;;;;;;;5126720;27;20049;-73
2023/04/25 01:13:01;;;;;;;9.30;1.77;;;;;;;;;;5125801;27;20047;-72
2023/04/25 01:15:35;;;;;;;1.67;1.35;;;;;;;;;;5127244;27;20493;-73
2023/04/25 01:18:08;;;;;;;3.03;1.70;;;;;;;;;;5126986;27;20039;-72
2023/04/25 01:20:42;;;;;;;5.03;1.30;;;;;;;;;;5126773;27;20686;-72
2023/04/25 01:23:15;;;;;;;4.20;1.50;;;;;;;;;;5126365;27;20051;-74
2023/04/25 01:25:51;;;;;;;3.00;1.52;;;;;;;;;;5126535;27;20059;-72
2023/04/25 01:28:23;;;;;;;5.32;2.08;;;;;;;;;;5125586;27;20059;-72
2023/04/25 01:30:55;;;;;;;3.35;2.00;;;;;;;;;;5126109;27;20050;-73
2023/04/25 01:33:26;;;;;;;6.35;1.85;;;;;;;;;;5125451;27;20043;-73
2023/04/25 01:35:58;;;;;;;8.65;1.75;;;;;;;;;;5127394;27;20505;-72
2023/04/25 01:38:30;;;;;;;2.80;1.80;;;;;;;;;;5109046;27;20058;-72
2023/04/25 01:41:01;;;;;;;2.65;1.38;;;;;;;;;;5125300;27;20051;-72
2023/04/25 01:43:32;;;;;;;2.70;2.03;;;;;;;;;;5125331;27;20055;-71
2023/04/25 01:46:03;;;;;;;3.17;2.00;;;;;;;;;;5126952;27;20439;-73
2023/04/25 01:48:34;;;;;;;3.17;1.75;;;;;;;;;;5126671;27;20054;-72
2023/04/25 01:51:05;;;;;;;3.65;1.85;;;;;;;;;;5126048;27;20413;-73
2023/04/25 01:53:36;;;;;;;3.38;1.90;;;;;;;;;;5125129;27;20051;-72
2023/04/25 01:56:07;;;;;;;2.50;1.80;;;;;;;;;;5124315;27;20054;-73
2023/04/25 01:58:39;;;;;;;5.82;1.95;;;;;;;;;;5125062;27;20078;-72
2023/04/25 02:01:12;;;;;;;3.70;1.73;;;;;;;;;;5129180;27;20043;-72
2023/04/25 02:03:50;;;;;;;3.45;1.60;;;;;;;;;;5125398;27;20421;-72
2023/04/25 02:06:30;;;;;;;2.50;1.80;;;;;;;;;;5124866;27;20747;-72
2023/04/25 02:09:01;;;;;;;2.63;1.67;;;;;;;;;;5125007;27;20048;-73
2023/04/25 02:11:32;;;;;;;4.80;1.92;;;;;;;;;;5124975;27;20413;-72
2023/04/25 02:14:20;;;;;;;3.67;2.50;;;;;;;;;;5124708;27;20055;-72
2023/04/25 02:17:17;;;;;;;3.83;2.00;;;;;;;;;;5124960;27;20055;-72
2023/04/25 02:19:50;;;;;;;2.97;1.63;;;;;;;;;;5126169;27;20401;-71
2023/04/25 02:22:21;;;;;;;4.00;2.10;;;;;;;;;;5108778;27;20055;-72
2023/04/25 02:24:51;;;;;;;4.63;1.92;;;;;;;;;;5124822;27;20051;-72
2023/04/25 02:27:22;;;;;;;6.40;2.20;;;;;;;;;;5124384;27;20058;-72
2023/04/25 02:29:53;;;;;;;4.63;1.80;;;;;;;;;;5124807;27;20425;-71
2023/04/25 02:32:23;;;;;;;5.32;1.63;;;;;;;;;;5126012;27;20422;-72
2023/04/25 02:34:54;;;;;;;5.32;2.13;;;;;;;;;;5126290;28;20051;-73
2023/04/25 02:37:24;;;;;;;5.28;2.25;;;;;;;;;;5126240;28;20043;-72
2023/04/25 02:39:55;;;;;;;5.05;2.30;;;;;;;;;;5125419;28;20043;-72
2023/04/25 02:42:26;;;;;;;4.82;2.40;;;;;;;;;;5124728;27;20055;-73
2023/04/25 02:44:58;;;;;;;3.78;2.03;;;;;;;;;;5124503;27;20532;-72
2023/04/25 02:47:28;;;;;;;5.03;2.10;;;;;;;;;;5125687;28;20051;-72
2023/04/25 02:50:00;;;;;;;4.35;2.00;;;;;;;;;;5124284;28;20051;-73
2023/04/25 02:52:30;;;;;;;5.03;1.90;;;;;;;;;;5124826;27;20058;-72
2023/04/25 02:55:10;;;;;;;2.88;1.90;;;;;;;;;;5124457;28;20390;-72
2023/04/25 02:57:40;;;;;;;7.43;1.83;;;;;;;;;;5124460;27;20402;-72
2023/04/25 03:00:14;;;;;;;2.47;1.50;;;;;;;;;;5124137;27;20490;-72
2023/04/25 03:02:45;;;;;;;5.03;2.65;;;;;;;;;;5125318;28;20050;-72
2023/04/25 03:05:16;;;;;;;4.75;2.10;;;;;;;;;;5125837;28;20478;-72
2023/04/25 03:07:46;;;;;;;5.63;1.95;;;;;;;;;;5124733;27;20418;-72
2023/04/25 03:10:17;;;;;;;3.65;2.13;;;;;;;;;;5124431;28;20529;-72
2023/04/25 03:12:48;;;;;;;6.85;2.08;;;;;;;;;;5125014;27;20434;-72
2023/04/25 03:15:18;;;;;;;5.32;2.20;;;;;;;;;;5129323;27;20055;-72
2023/04/25 03:17:48;;;;;;;3.28;1.80;;;;;;;;;;5128281;27;20078;-72
2023/04/25 03:20:18;;;;;;;4.60;2.08;;;;;;;;;;5129654;27;20051;-72
2023/04/25 03:22:50;;;;;;;4.40;2.08;;;;;;;;;;5128413;27;20413;-72
2023/04/25 03:25:20;;;;;;;3.55;2.17;;;;;;;;;;5127976;27;20054;-73
2023/04/25 03:27:50;;;;;;;3.58;2.45;;;;;;;;;;5129474;27;20054;-72
2023/04/25 03:30:20;;;;;;;5.43;1.70;;;;;;;;;;5128334;27;20081;-73
2023/04/25 03:32:51;;;;;;;3.53;1.75;;;;;;;;;;5127706;27;20428;-73
2023/04/25 03:35:23;;;;;;;5.55;2.30;;;;;;;;;;5127343;27;20050;-72
2023/04/25 03:37:55;;;;;;;4.47;2.30;;;;;;;;;;5127654;27;20051;-73
2023/04/25 03:40:30;;;;;;;2.25;1.73;;;;;;;;;;5127177;27;20062;-73
2023/04/25 03:43:18;;;;;;;8.35;2.05;;;;;;;;;;5128502;27;20047;-72
2023/04/25 03:45:57;;;;;;;4.35;2.25;;;;;;;;;;5127704;27;20049;-72
2023/04/25 03:48:28;;;;;;;4.68;2.33;;;;;;;;;;5127321;27;20054;-72
2023/04/25 03:50:59;;;;;;;3.47;2.30;;;;;;;;;;5127685;27;20508;-73
2023/04/25 03:53:31;;;;;;;2.58;1.95;;;;;;;;;;5127665;27;20054;-71
2023/04/25 03:56:27;;;;;;;2.20;1.80;;;;;;;;;;5120137;27;20055;-72
2023/04/25 03:59:04;;;;;;;3.08;2.17;;;;;;;;;;5126650;27;20069;-72
2023/04/25 04:01:39;;;;;;;2.60;1.90;;;;;;;;;;5127946;27;20576;-72
2023/04/25 04:04:09;;;;;;;5.03;1.90;;;;;;;;;;5127749;27;20514;-73
2023/04/25 04:06:40;;;;;;;2.60;1.75;;;;;;;;;;5127514;27;20055;-72
2023/04/25 04:09:17;;;;;;;2.95;2.00;;;;;;;;;;5127048;27;20425;-72
2023/04/25 04:11:48;;;;;;;5.22;2.15;;;;;;;;;;5126799;27;20058;-72
2023/04/25 04:14:19;;;;;;;6.25;2.40;;;;;;;;;;5128698;27;20051;-73
2023/04/25 04:16:52;;;;;;;2.75;2.03;;;;;;;;;;5127846;27;20085;-72
2023/04/25 04:19:23;;;;;;;4.22;2.42;;;;;;;;;;5127469;27;20544;-72
2023/04/25 04:22:05;;;;;;;3.60;2.30;;;;;;;;;;5126894;27;20086;-73
2023/04/25 04:24:36;;;;;;;2.92;1.92;;;;;;;;;;5126496;27;20066;-72
2023/04/25 04:27:08;;;;;;;5.75;2.45;;;;;;;;;;5126926;27;20054;-71
2023/04/25 04:29:48;;;;;;;4.10;2.00;;;;;;;;;;5126966;27;20047;-71
2023/04/25 04:32:33;;;;;;;5.70;2.25;;;;;;;;;;5126628;27;20424;-72
2023/04/25 04:35:06;;;;;;;3.60;2.28;;;;;;;;;;5127331;27;20513;-73
2023/04/25 04:37:37;;;;;;;3.95;2.40;;;;;;;;;;5126735;27;20078;-72
2023/04/25 04:40:10;;;;;;;3.97;2.78;;;;;;;;;;5126487;27;20066;-72
2023/04/25 04:42:47;;;;;;;5.05;3.03;;;;;;;;;;5127865;27;20588;-71
2023/04/25 04:45:29;;;;;;;6.60;2.90;;;;;;;;;;5132791;27;20059;-72
2023/04/25 04:48:21;;;;;;;2.92;2.25;;;;;;;;;;5105465;27;20417;-72
2023/04/25 04:51:15;;;;;;;4.50;2.67;;;;;;;;;;5117088;27;20050;-72
2023/04/25 04:53:58;;;;;;;3.22;2.35;;;;;;;;;;5132110;27;20051;-72
2023/04/25 04:56:39;;;;;;;6.95;2.88;;;;;;;;;;5125647;27;20535;-73
2023/04/25 04:59:36;;;;;;;4.95;2.60;;;;;;;;;;5118216;27;20421;-72
2023/04/25 05:02:30;;;;;;;6.15;3.22;;;;;;;;;;5125022;27;20063;-71
2023/04/25 05:05:21;;;;;;;4.63;2.67;;;;;;;;;;5104953;27;20051;-72
2023/04/25 05:08:12;;;;;;;4.38;3.13;;;;;;;;;;5126233;27;20128;-72
2023/04/25 05:11:02;;;;;;;2.92;2.70;;;;;;;;;;5122821;27;20062;-72
2023/04/25 05:14:02;;;;;;;4.13;3.10;;;;;;;;;;5121382;27;20043;-72
2023/04/25 05:16:45;;;;;;;6.32;3.03;;;;;;;;;;5131838;27;20036;-72
2023/04/25 05:19:26;;;;;;;4.15;3.00;;;;;;;;;;5126033;27;20101;-71
2023/04/25 05:22:16;;;;;;;4.28;3.00;;;;;;;;;;5125954;27;20050;-72
2023/04/25 05:25:07;;;;;;;4.45;3.15;;;;;;;;;;5125881;27;20070;-72
2023/04/25 05:28:01;;;;;;;3.85;3.17;;;;;;;;;;5127539;27;20051;-71
2023/04/25 05:30:47;;;;;;;3.80;2.75;;;;;;;;;;5125409;27;20051;-71
2023/04/25 05:33:28;;;;;;;9.55;3.10;;;;;;;;;;5125317;27;20047;-71
2023/04/25 05:36:00;;;;;;;4.10;2.92;;;;;;;;;;5124845;27;20502;-71
2023/04/25 05:38:31;;;;;;;3.78;2.60;;;;;;;;;;5125585;27;20051;-71
2023/04/25 05:41:14;;;;;;;3.08;2.72;;;;;;;;;;5125587;27;20047;-72
2023/04/25 05:44:09;;;;;;;3.78;3.25;;;;;;;;;;5125195;27;20136;-72
2023/04/25 05:46:50;;;;;;;4.47;3.30;;;;;;;;;;5125299;27;20054;-72
2023/04/25 05:49:42;;;;;;;3.75;3.17;;;;;;;;;;5118259;27;20531;-72
2023/04/25 05:52:25;;;;;;;5.13;3.30;;;;;;;;;;5125570;27;20062;-73
2023/04/25 05:55:10;;;;;;;3.97;3.30;;;;;;;;;;5125507;27;20058;-73
2023/04/25 05:57:42;;;;;;;4.53;3.55;;;;;;;;;;5124594;27;20445;-72
2023/04/25 06:00:16;;;;;;;5.32;3.20;;;;;;;;;;5125209;27;20055;-72
2023/04/25 06:02:49;;;;;;;3.97;2.83;;;;;;;;;;5124536;27;20055;-72
2023/04/25 06:05:20;;;;;;;5.05;3.50;;;;;;;;;;5125068;27;20521;-71
2023/04/25 06:07:51;;;;;;;5.95;3.72;;;;;;;;;;5125112;27;20055;-72
2023/04/25 06:10:22;;;;;;;5.45;3.53;;;;;;;;;;5125032;27;20674;-71
2023/04/25 06:12:52;;;;;;;6.60;3.78;;;;;;;;;;5125562;27;20047;-72
2023/04/25 06:15:24;;;;;;;4.95;3.38;;;;;;;;;;5124847;27;20055;-72
2023/04/25 06:17:56;;;;;;;6.50;4.22;;;;;;;;;;5126477;27;20035;-73
2023/04/25 06:20:27;;;;;;;3.70;3.20;;;;;;;;;;5125961;27;20043;-73
2023/04/25 06:22:59;;;;;;;4.57;3.25;;;;;;;;;;5123854;27;20394;-72
2023/04/25 06:25:50;;;;;;;3.67;2.90;;;;;;;;;;5124859;27;20047;-73
2023/04/25 06:28:21;;;;;;;4.25;3.42;;;;;;;;;;5124826;27;20409;-73
2023/04/25 06:30:55;;;;;;;4.85;3.53;;;;;;;;;;5124775;27;20074;-72
2023/04/25 06:33:28;;;;;;;4.68;3.67;;;;;;;;;;5124878;27;20094;-72
2023/04/25 06:35:59;;;;;;;7.53;3.72;;;;;;;;;;5124302;27;20065;-73
2023/04/25 06:38:29;;;;;;;5.90;4.43;;;;;;;;;;5124640;27;20047;-73
2023/04/25 06:41:01;;;;;;;4.75;3.60;;;;;;;;;;5126497;28;20409;-72
2023/04/25 06:43:35;;;;;;;8.55;3.63;;;;;;;;;;5124048;28;20433;-72
2023/04/25 06:46:25;;;;;;;5.43;4.00;;;;;;;;;;5117622;28;20055;-73
2023/04/25 06:48:58;;;;;;;6.45;3.63;;;;;;;;;;5128696;27;20066;-72
2023/04/25 06:51:30;;;;;;;6.28;3.55;;;;;;;;;;5128949;27;20418;-73
2023/04/25 06:54:01;;;;;;;6.00;3.97;;;;;;;;;;5129263;27;20062;-73
2023/04/25 06:56:38;;;;;;;5.18;4.13;;;;;;;;;;5128917;27;20043;-73
2023/04/25 06:59:13;;;;;;;4.72;3.63;;;;;;;;;;5129039;27;20048;-71
2023/04/25 07:01:46;;;;;;;7.60;4.32;;;;;;;;;;5129130;27;20062;-71
2023/04/25 07:04:20;;;;;;;6.90;4.03;;;;;;;;;;5128174;27;20051;-71
2023/04/25 07:06:55;;;;;;;5.28;3.97;;;;;;;;;;5128421;27;20047;-71
2023/04/25 07:09:35;;;;;;;4.20;3.28;;;;;;;;;;5128289;27;20055;-73
2023/04/25 07:12:06;;;;;;;8.93;4.38;;;;;;;;;;5128055;27;20043;-72
2023/04/25 07:14:39;;;;;;;6.25;3.47;;;;;;;;;;5128336;27;20539;-73
2023/04/25 07:17:10;;;;;;;4.95;3.65;;;;;;;;;;5128222;27;20051;-73
2023/04/25 07:19:40;;;;;;;9.05;4.13;;;;;;;;;;5128598;27;20066;-72
2023/04/25 07:22:12;;;;;;;4.35;3.67;;;;;;;;;;5128543;27;20047;-72
2023/04/25 07:24:48;;;;;;;5.28;3.63;;;;;;;;;;5128257;27;20425;-72
2023/04/25 07:27:21;;;;;;;5.80;3.58;;;;;;;;;;5127782;27;20529;-72
2023/04/25 07:30:07;;;;;;;5.72;3.65;;;;;;;;;;5127967;27;20509;-72
2023/04/25 07:32:40;;;;;;;5.47;3.72;;;;;;;;;;5127541;27;20074;-72
2023/04/25 07:35:11;;;;;;;3.92;3.33;;;;;;;;;;5129417;27;20437;-73
2023/04/25 07:37:42;;;;;;;6.57;3.80;;;;;;;;;;5129265;27;20043;-72
2023/04/25 07:40:18;;;;;;;5.82;3.53;;;;;;;;;;5127898;27;20517;-72
2023/04/25 07:42:53;;;;;;;4.43;3.67;;;;;;;;;;5127898;27;20058;-72
2023/04/25 07:45:34;;;;;;;6.40;4.75;;;;;;;;;;5127739;27;20062;-71
2023/04/25 07:48:05;;;;;;;7.43;3.90;;;;;;;;;;5127786;27;20047;-72
2023/04/25 07:50:38;;;;;;;5.45;3.55;;;;;;;;;;5111535;27;20051;-72
2023/04/25 07:53:10;;;;;;;5.13;3.25;;;;;;;;;;5128047;27;20421;-72
2023/04/25 07:55:48;;;;;;;7.05;3.40;;;;;;;;;;5128031;27;20047;-71
2023/04/25 07:58:21;;;;;;;5.10;3.28;;;;;;;;;;5127493;27;20062;-72
2023/04/25 08:00:57;;;;;;;4.15;3.30;;;;;;;;;;5127502;27;20055;-72
2023/04/25 08:03:50;;;;;;;7.57;4.05;;;;;;;;;;5125736;27;20071;-72
2023/04/25 08:06:31;;;;;;;7.57;3.60;;;;;;;;;;5127400;27;20547;-72
2023/04/25 08:09:09;;;;;;;7.15;4.22;;;;;;;;;;5127461;27;20074;-72
2023/04/25 08:11:41;;;;;;;5.10;4.10;;;;;;;;;;5127801;27;20047;-72
2023/04/25 08:14:15;;;;;;;4.47;3.50;;;;;;;;;;5127462;27;20043;-77
2023/04/25 08:16:47;;;;;;;6.15;4.30;;;;;;;;;;5126626;27;20047;-72
2023/04/25 08:19:18;;;;;;;5.80;4.40;;;;;;;;;;5127486;27;20047;-71
2023/04/25 08:21:48;;;;;;;5.43;4.25;;;;;;;;;;5127550;27;20051;-72
2023/04/25 08:24:23;;;;;;;5.47;3.95;;;;;;;;;;5127116;27;20417;-72
2023/04/25 08:26:54;;;;;;;5.68;3.78;;;;;;;;;;5127001;27;20054;-72
2023/04/25 08:29:28;;;;;;;5.57;4.25;;;;;;;;;;5126883;27;20062;-72
2023/04/25 08:31:58;;;;;;;5.20;3.75;;;;;;;;;;5126604;27;20517;-72
2023/04/25 08:34:30;;;;;;;6.40;4.25;;;;;;;;;;5126850;27;20520;-72
2023/04/25 08:37:05;;;;;;;9.15;4.20;;;;;;;;;;5127128;27;20058;-72
2023/04/25 08:39:54;;;;;;;6.30;4.43;;;;;;;;;;5126957;27;20051;-72
2023/04/25 08:42:26;;;;;;;11.27;4.40;;;;;;;;;;5127905;27;20054;-72
2023/04/25 08:45:00;;;;;;;7.47;4.55;;;;;;;;;;5126647;27;20055;-72
2023/04/25 08:47:41;;;;;;;7.50;3.92;;;;;;;;;;5126119;27;20051;-72
2023/04/25 08:50:11;;;;;;;8.57;4.70;;;;;;;;;;5126390;27;20074;-72
2023/04/25 08:52:49;;;;;;;9.27;4.30;;;;;;;;;;5126308;27;20073;-71
2023/04/25 08:55:20;;;;;;;13.07;3.80;;;;;;;;;;5128366;27;20409;-72
2023/04/25 08:57:56;;;;;;;6.35;4.45;;;;;;;;;;5126925;27;20517;-73
2023/04/25 09:00:27;;;;;;;5.85;3.75;;;;;;;;;;5126886;27;20517;-74
2023/04/25 09:02:59;;;;;;;7.78;4.18;;;;;;;;;;5125728;27;20055;-72
2023/04/25 09:05:35;;;;;;;7.78;3.60;;;;;;;;;;5125841;27;20055;-72
2023/04/25 09:08:05;;;;;;;5.57;4.00;;;;;;;;;;5127013;27;20782;-73
2023/04/25 09:10:37;;;;;;;7.93;3.83;;;;;;;;;;5124694;27;20051;-72
2023/04/25 09:13:12;;;;;;;10.57;4.13;;;;;;;;;;5126085;27;20051;-72
2023/04/25 09:16:02;;;;;;;7.22;3.03;;;;;;;;;;5134891;27;20051;-72
2023/04/25 09:18:53;;;;;;;9.10;3.22;;;;;;;;;;5126875;27;20051;-72
2023/04/25 09:21:24;;;;;;;8.40;3.40;;;;;;;;;;5126884;27;20417;-74
2023/04/25 09:23:59;;;;;;;7.00;3.45;;;;;;;;;;5125874;27;20070;-72
2023/04/25 09:26:31;;;;;;;;;;;;;;;;;;5127599;27;20054;-72
2023/04/25 09:29:08;;;;;;;5.55;3.03;;;;;;;;;;5125925;27;19930;-72
2023/04/25 09:31:42;;;;;;;6.18;2.90;;;;;;;;;;5125744;27;20409;-71
2023/04/25 09:34:15;;;;;;;6.22;3.08;;;;;;;;;;5125218;27;20043;-72
2023/04/25 09:36:55;;;;;;;5.25;2.75;;;;;;;;;;5126498;27;20043;-72
2023/04/25 09:40:02;;;;;;;9.52;3.05;;;;;;;;;;5125194;27;20047;-72
2023/04/25 09:42:36;;;;;;;6.55;3.10;;;;;;;;;;5125116;27;20607;-74
2023/04/25 09:45:07;;;;;;;2.90;2.08;;;;;;;;;;5125403;27;20054;-72
2023/04/25 09:47:43;;;;;;;4.43;1.77;;;;;;;;;;5125693;27;20047;-72
2023/04/25 09:50:19;;;;;;;2.55;1.65;;;;;;;;;;5125468;27;20405;-74
2023/04/25 09:53:05;;;;;;;2.95;1.60;;;;;;;;;;5125448;27;20085;-73
2023/04/25 09:56:03;;;;;;;2.67;1.52;;;;;;;;;;5124870;27;20069;-73
2023/04/25 09:58:41;;;;;;;2.80;1.90;;;;;;;;;;5126254;27;20059;-76
2023/04/25 10:01:12;;;;;;;5.20;1.33;;;;;;;;;;5125761;27;20058;-72
2023/04/25 10:03:57;;;;;;;2.22;1.50;;;;;;;;;;5125324;27;20065;-72
2023/04/25 10:06:53;;;;;;;7.40;1.60;;;;;;;;;;5125303;27;20521;-76
2023/04/25 10:09:29;;;;;;;2.22;1.20;;;;;;;;;;5125913;27;20057;-73
2023/04/25 10:12:03;;;;;;;2.25;1.05;;;;;;;;;;5126509;27;20079;-79
2023/04/25 10:14:35;;;;;;;2.33;1.60;;;;;;;;;;5126175;27;20043;-72
2023/04/25 10:17:06;;;;;;;1.85;1.10;;;;;;;;;;5126422;27;20485;-73
2023/04/25 10:19:37;;;;;;;1.70;1.05;;;;;;;;;;5126156;27;20066;-72
2023/04/25 10:22:37;;;;;;;1.77;0.93;;;;;;;;;;5123478;27;20039;-73
2023/04/25 10:25:08;;;;;;;1.33;1.08;;;;;;;;;;5126279;27;20406;-72
2023/04/25 10:27:39;;;;;;;0.88;0.82;;;;;;;;;;5125668;27;20050;-72
2023/04/25 10:30:17;;;;;;;4.25;1.17;;;;;;;;;;5125897;27;20429;-72
2023/04/25 10:32:50;;;;;;;5.32;1.10;;;;;;;;;;5125989;27;20047;-73
2023/04/25 10:35:31;;;;;;;5.10;1.20;;;;;;;;;;5125919;27;20047;-77
2023/04/25 10:38:11;;;;;;;6.28;1.33;;;;;;;;;;5125233;28;20043;-73
2023/04/25 10:40:42;;;;;;;9.27;1.80;;;;;;;;;;5125255;28;20051;-74
2023/04/25 10:43:33;;;;;;;4.70;1.00;;;;;;;;;;5125424;27;20145;-72
2023/04/25 10:46:14;;;;;;;9.02;1.13;;;;;;;;;;5125877;28;20054;-72
2023/04/25 10:49:02;;;;;;;4.47;0.95;;;;;;;;;;5124042;28;20047;-73
2023/04/25 10:51:34;;;;;;;4.45;1.30;;;;;;;;;;5125459;28;20047;-72
2023/04/25 10:54:25;;;;;;;2.90;0.90;;;;;;;;;;5125186;28;20074;-72
2023/04/25 10:56:59;;;;;;;5.18;1.08;;;;;;;;;;5125563;28;20187;-72
2023/04/25 10:59:29;;;;;;;6.78;0.93;;;;;;;;;;5126260;28;20058;-75
2023/04/25 11:02:00;;;;;;;8.77;1.73;;;;;;;;;;5125077;28;20047;-72
2023/04/25 11:04:34;;;;;;;15.40;1.42;;;;;;;;;;5124388;28;20051;-72
2023/04/25 11:07:29;;;;;;;13.90;1.33;;;;;;;;;;5125437;28;20043;-75
2023/04/25 11:10:03;;;;;;;9.20;1.40;;;;;;;;;;5125091;28;20046;-72
2023/04/25 11:12:34;;;;;;;12.07;0.80;;;;;;;;;;5125197;28;20844;-73
2023/04/25 11:15:07;;;;;;;3.13;0.90;;;;;;;;;;5125331;28;20489;-73
2023/04/25 11:17:39;;;;;;;2.15;0.80;;;;;;;;;;5125207;28;20052;-73
2023/04/25 11:20:11;;;;;;;8.05;0.70;;;;;;;;;;5125763;28;20070;-73
2023/04/25 11:22:44;;;;;;;2.45;0.73;;;;;;;;;;5125811;28;20051;-73
2023/04/25 11:25:18;;;;;;;4.03;0.50;;;;;;;;;;5125670;28;20058;-70
2023/04/25 11:27:53;;;;;;;5.68;0.60;;;;;;;;;;5125255;28;20513;-71
2023/04/25 11:30:25;;;;;;;2.03;1.00;;;;;;;;;;5124950;28;20504;-73
2023/04/25 11:32:57;;;;;;;5.38;0.70;;;;;;;;;;5125829;27;20043;-71
2023/04/25 11:35:27;;;;;;;1.38;0.60;;;;;;;;;;5128686;27;20051;-72
2023/04/25 11:37:57;;;;;;;1.75;0.68;;;;;;;;;;5129657;27;20035;-72
2023/04/25 11:40:27;;;;;;;2.25;0.75;;;;;;;;;;5129219;27;20047;-72
2023/04/25 11:43:01;;;;;;;0.93;0.35;;;;;;;;;;5129024;27;21109;-72
2023/04/25 11:45:33;;;;;;;2.67;0.70;;;;;;;;;;5128606;27;20046;-77
2023/04/25 11:48:04;;;;;;;2.28;0.50;;;;;;;;;;5129100;27;20498;-72
2023/04/25 11:50:35;;;;;;;5.30;0.90;;;;;;;;;;5128871;27;20047;-72
2023/04/25 11:53:06;;;;;;;3.47;0.85;;;;;;;;;;5128918;27;20864;-72
2023/04/25 11:55:37;;;;;;;16.80;1.80;;;;;;;;;;5129076;27;20513;-73
2023/04/25 11:58:08;;;;;;;3.22;0.68;;;;;;;;;;5128493;27;20040;-73
2023/04/25 12:00:43;;;;;;;4.20;1.67;;;;;;;;;;5126634;27;20058;-73
2023/04/25 12:03:33;;;;;;;2.78;0.57;;;;;;;;;;5128471;27;20047;-73
2023/04/25 12:06:05;;;;;;;1.77;0.73;;;;;;;;;;5127266;27;20050;-72
2023/04/25 12:08:36;;;;;;;2.15;0.65;;;;;;;;;;5128401;27;20047;-73
2023/04/25 12:11:21;;;;;;;2.60;0.68;;;;;;;;;;5128562;27;20516;-72
2023/04/25 12:13:54;;;;;;;1.98;0.82;;;;;;;;;;5128456;27;20043;-76
2023/04/25 12:16:27;;;;;;;0.55;0.52;;;;;;;;;;5128092;27;20074;-74
2023/04/25 12:18:59;;;;;;;2.35;0.80;;;;;;;;;;5127750;27;20070;-73
2023/04/25 12:21:32;;;;;;;2.97;0.70;;;;;;;;;;5128126;27;20043;-73
2023/04/25 12:24:13;;;;;;;1.40;0.55;;;;;;;;;;5128443;27;20046;-73
2023/04/25 12:27:04;;;;;;;0.85;0.80;;;;;;;;;;5128305;27;20043;-72
2023/04/25 12:29:36;;;;;;;4.18;1.50;;;;;;;;;;5127929;27;20422;-72
2023/04/25 12:32:19;;;;;;;5.75;2.10;;;;;;;;;;5127850;27;20046;-73
2023/04/25 12:34:48;;;;;;;5.30;1.13;;;;;;;;;;5127733;27;20047;-74
2023/04/25 12:37:20;;;;;;;3.17;0.70;;;;;;;;;;5127038;27;20094;-73
2023/04/25 12:39:51;;;;;;;3.15;0.93;;;;;;;;;;5127561;27;20043;-72
2023/04/25 12:42:23;;;;;;;2.08;1.02;;;;;;;;;;5127937;27;20051;-73
2023/04/25 12:44:53;;;;;;;4.47;0.88;;;;;;;;;;5125828;27;20047;-74
2023/04/25 12:47:23;;;;;;;2.28;0.90;;;;;;;;;;5127437;27;20043;-73
2023/04/25 12:49:54;;;;;;;2.60;0.70;;;;;;;;;;5127462;27;20047;-73
2023/04/25 12:52:24;;;;;;;5.38;2.00;;;;;;;;;;5125304;27;20047;-72
2023/04/25 12:54:54;;;;;;;6.20;1.73;;;;;;;;;;5127772;27;20043;-73
2023/04/25 12:57:26;;;;;;;2.63;1.05;;;;;;;;;;5127584;27;20043;-72
2023/04/25 12:59:56;;;;;;;2.72;0.90;;;;;;;;;;5127885;27;20055;-73
2023/04/25 13:02:27;;;;;;;2.53;0.80;;;;;;;;;;5127853;27;20074;-74
2023/04/25 13:04:57;;;;;;;2.90;0.75;;;;;;;;;;5127234;27;20047;-73
2023/04/25 13:07:27;;;;;;;2.45;0.70;;;;;;;;;;5127251;27;20918;-74
2023/04/25 13:09:58;;;;;;;1.10;0.60;;;;;;;;;;5127197;27;20043;-72
2023/04/25 13:12:30;;;;;;;1.23;0.75;;;;;;;;;;5126895;27;20046;-73
2023/04/25 13:15:01;;;;;;;1.45;0.50;;;;;;;;;;5127426;27;20054;-73
2023/04/25 13:17:32;;;;;;;1.90;0.60;;;;;;;;;;5127305;27;20058;-72
2023/04/25 13:20:04;;;;;;;0.75;0.68;;;;;;;;;;5126716;27;20054;-73
2023/04/25 13:22:39;;;;;;;3.47;0.80;;;;;;;;;;5126906;27;20058;-73
2023/04/25 13:25:10;;;;;;;7.22;0.90;;;;;;;;;;5126943;27;20043;-73
2023/04/25 13:27:43;;;;;;;3.85;0.52;;;;;;;;;;5126742;27;20605;-74
2023/04/25 13:30:13;;;;;;;0.63;0.45;;;;;;;;;;5126995;27;20039;-75
2023/04/25 13:32:47;;;;;;;4.95;0.63;;;;;;;;;;5126527;27;20066;-74
2023/04/25 13:35:17;;;;;;;4.07;0.80;;;;;;;;;;5126535;27;20043;-72
2023/04/25 13:37:47;;;;;;;8.52;1.27;;;;;;;;;;5126840;27;20043;-73
2023/04/25 13:40:17;;;;;;;4.40;0.98;;;;;;;;;;5126448;27;20070;-74
2023/04/25 13:42:48;;;;;;;1.95;0.95;;;;;;;;;;5126624;27;20035;-73
2023/04/25 13:45:20;;;;;;;5.82;0.90;;;;;;;;;;5124823;27;20051;-73
2023/04/25 13:47:50;;;;;;;4.32;0.88;;;;;;;;;;5126659;27;20520;-73
2023/04/25 13:50:21;;;;;;;6.72;0.80;;;;;;;;;;5126507;27;20039;-74
2023/04/25 13:52:51;;;;;;;7.35;1.13;;;;;;;;;;5125841;27;20054;-75
2023/04/25 13:55:22;;;;;;;5.65;0.90;;;;;;;;;;5126347;27;20050;-73
2023/04/25 13:57:53;;;;;;;11.48;8.75;;;;;;;;;;5125514;27;20043;-76
2023/04/25 14:00:23;;;;;;;3.40;0.90;;;;;;;;;;5125847;27;20054;-73
2023/04/25 14:02:54;;;;;;;4.05;1.10;;;;;;;;;;5125406;27;20043;-74
2023/04/25 14:05:24;;;;;;;8.73;0.93;;;;;;;;;;5126105;27;20039;-73
2023/04/25 14:07:55;;;;;;;2.35;0.70;;;;;;;;;;5126108;27;20051;-74
2023/04/25 14:10:28;;;;;;;4.57;0.88;;;;;;;;;;5125653;27;20051;-74
2023/04/25 14:13:00;;;;;;;3.90;1.02;;;;;;;;;;5123391;27;20065;-73
2023/04/25 14:15:33;;;;;;;6.18;1.17;;;;;;;;;;5126155;27;20413;-75
2023/04/25 14:18:03;;;;;;;4.63;1.50;;;;;;;;;;5126002;27;20051;-74
2023/04/25 14:20:35;;;;;;;2.85;0.70;;;;;;;;;;5125845;27;20801;-77
2023/04/25 14:23:06;;;;;;;3.30;0.85;;;;;;;;;;5126020;27;20051;-73
2023/04/25 14:25:36;;;;;;;2.63;0.70;;;;;;;;;;5125558;27;20046;-74
2023/04/25 14:28:06;;;;;;;2.90;1.05;;;;;;;;;;5125605;27;20079;-73
2023/04/25 14:30:37;;;;;;;4.78;1.33;;;;;;;;;;5125779;27;20043;-74
2023/04/25 14:33:09;;;;;;;3.95;0.88;;;;;;;;;;5125528;27;20074;-74
2023/04/25 14:35:40;;;;;;;7.95;2.13;;;;;;;;;;5125597;27;20054;-72
2023/04/25 14:38:09;;;;;;;5.40;1.27;;;;;;;;;;5125782;27;20050;-74
2023/04/25 14:40:41;;;;;;;6.35;3.65;;;;;;;;;;5125043;28;20556;-73
2023/04/25 14:43:12;;;;;;;4.60;2.72;;;;;;;;;;5124264;28;20066;-73
2023/04/25 14:45:42;;;;;;;4.78;1.60;;;;;;;;;;5124171;28;20051;-75
2023/04/25 14:48:12;;;;;;;2.53;1.48;;;;;;;;;;5125489;28;20058;-73
2023/04/25 14:50:43;;;;;;;5.47;1.50;;;;;;;;;;5124411;28;20485;-74
2023/04/25 14:53:15;;;;;;;2.55;1.13;;;;;;;;;;5126011;28;20054;-71
2023/04/25 14:55:45;;;;;;;3.97;1.65;;;;;;;;;;5126169;28;20540;-74
2023/04/25 14:58:15;;;;;;;1.95;1.10;;;;;;;;;;5125589;28;20494;-72
2023/04/25 15:00:46;;;;;;;3.67;1.00;;;;;;;;;;5123631;28;20505;-73
2023/04/25 15:03:18;;;;;;;4.32;0.90;;;;;;;;;;5123968;28;20054;-75
2023/04/25 15:05:49;;;;;;;5.43;1.08;;;;;;;;;;5125151;28;20047;-71
2023/04/25 15:08:20;;;;;;;2.65;1.00;;;;;;;;;;5127651;27;20050;-74
2023/04/25 15:10:50;;;;;;;1.70;0.95;;;;;;;;;;5130076;27;20058;-74
2023/04/25 15:13:22;;;;;;;4.90;0.90;;;;;;;;;;5129710;27;20498;-74
2023/04/25 15:15:55;;;;;;;4.20;0.90;;;;;;;;;;5128088;27;20436;-72
2023/04/25 15:18:25;;;;;;;2.25;0.70;;;;;;;;;;5129660;27;20387;-77
2023/04/25 15:20:55;;;;;;;1.50;0.85;;;;;;;;;;5129151;27;20047;-73
2023/04/25 15:23:26;;;;;;;2.20;1.15;;;;;;;;;;5129539;27;20047;-74
2023/04/25 15:25:58;;;;;;;2.50;1.00;;;;;;;;;;5129476;27;20054;-73
2023/04/25 15:28:28;;;;;;;4.15;1.15;;;;;;;;;;5129178;27;20050;-77